createdAt,value
2019-05-28T00:00:59.411Z,59.19
2019-05-28T00:03:25.997Z,59.12
2019-05-28T00:05:52.577Z,59.14
2019-05-28T00:08:19.178Z,59.25
2019-05-28T00:10:45.761Z,59.30
2019-05-28T00:13:12.361Z,59.10
2019-05-28T00:15:38.959Z,59.28
2019-05-28T00:18:05.535Z,59.43
2019-05-28T00:20:32.130Z,59.38
2019-05-28T00:22:58.775Z,59.43
2019-05-28T00:25:29.192Z,59.51
2019-05-28T00:27:53.760Z,59.79
2019-05-28T00:30:21.123Z,59.70
2019-05-28T00:32:47.903Z,59.64
2019-05-28T00:35:14.569Z,59.66
2019-05-28T00:37:41.162Z,59.75
2019-05-28T00:40:08.592Z,59.75
2019-05-28T00:42:35.213Z,59.74
2019-05-28T00:45:01.816Z,59.86
2019-05-28T00:47:28.502Z,60.03
2019-05-28T00:49:55.136Z,60.08
2019-05-28T00:52:21.788Z,60.20
2019-05-28T00:54:48.423Z,60.44
2019-05-28T00:57:15.022Z,60.33
2019-05-28T00:59:41.621Z,60.34
2019-05-28T01:02:08.276Z,60.27
2019-05-28T01:04:34.873Z,60.18
2019-05-28T01:07:01.568Z,60.44
2019-05-28T01:09:28.307Z,60.44
2019-05-28T01:11:54.909Z,60.35
2019-05-28T01:14:21.536Z,60.30
2019-05-28T01:16:48.139Z,60.28
2019-05-28T01:19:14.777Z,60.49
2019-05-28T01:21:42.722Z,60.72
2019-05-28T01:24:09.470Z,60.74
2019-05-28T01:26:36.202Z,60.80
2019-05-28T01:29:02.829Z,60.93
2019-05-28T01:31:29.439Z,60.65
2019-05-28T01:33:56.070Z,60.69
2019-05-28T01:36:22.666Z,60.65
2019-05-28T01:38:49.320Z,60.71
2019-05-28T01:41:15.906Z,60.93
2019-05-28T01:43:42.506Z,61.07
2019-05-28T01:46:09.135Z,61.16
2019-05-28T01:48:35.738Z,61.18
2019-05-28T01:51:02.326Z,61.08
2019-05-28T01:53:28.947Z,61.17
2019-05-28T01:55:55.574Z,61.18
2019-05-28T01:58:22.233Z,61.20
2019-05-28T02:00:48.836Z,61.29
2019-05-28T02:03:15.428Z,61.27
2019-05-28T02:05:42.068Z,61.28
2019-05-28T02:08:08.671Z,61.47
2019-05-28T02:10:35.341Z,61.29
2019-05-28T02:13:01.930Z,61.37
2019-05-28T02:15:28.530Z,61.40
2019-05-28T02:17:55.176Z,61.60
2019-05-28T02:20:21.788Z,61.56
2019-05-28T02:22:48.417Z,61.57
2019-05-28T02:25:15.007Z,61.51
2019-05-28T02:27:41.644Z,61.49
2019-05-28T02:30:08.344Z,61.49
2019-05-28T02:32:34.972Z,61.61
2019-05-28T02:35:01.607Z,61.70
2019-05-28T02:37:28.240Z,61.90
2019-05-28T02:39:54.833Z,61.90
2019-05-28T02:42:21.463Z,61.97
2019-05-28T02:44:48.100Z,62.10
2019-05-28T02:47:14.706Z,61.99
2019-05-28T02:49:41.310Z,62.14
2019-05-28T02:52:07.948Z,62.07
2019-05-28T02:54:34.592Z,61.98
2019-05-28T02:57:01.193Z,61.87
2019-05-28T02:59:27.787Z,61.86
2019-05-28T03:01:54.427Z,62.04
2019-05-28T03:04:21.018Z,62.07
2019-05-28T03:06:47.641Z,62.19
2019-05-28T03:09:14.245Z,62.39
2019-05-28T03:11:40.836Z,62.28
2019-05-28T03:14:07.480Z,62.21
2019-05-28T03:16:34.067Z,62.52
2019-05-28T03:19:00.675Z,62.59
2019-05-28T03:21:27.304Z,62.70
2019-05-28T03:23:53.939Z,62.60
2019-05-28T03:26:23.561Z,62.48
2019-05-28T03:28:48.893Z,62.42
2019-05-28T03:31:15.516Z,62.48
2019-05-28T03:33:42.158Z,62.50
2019-05-28T03:36:08.757Z,62.50
2019-05-28T03:38:35.470Z,62.62
2019-05-28T03:41:02.279Z,62.64
2019-05-28T03:43:29.115Z,62.54
2019-05-28T03:45:55.708Z,62.47
2019-05-28T03:48:22.328Z,62.41
2019-05-28T03:50:48.959Z,62.36
2019-05-28T03:53:15.559Z,62.22
2019-05-28T03:55:42.171Z,62.12
2019-05-28T03:58:08.768Z,62.06
2019-05-28T04:00:35.428Z,62.06
2019-05-28T04:03:02.020Z,62.00
2019-05-28T04:05:28.619Z,62.00
2019-05-28T04:07:55.237Z,62.01
2019-05-28T04:10:21.820Z,61.96
2019-05-28T04:12:48.433Z,61.92
2019-05-28T04:15:15.047Z,61.86
2019-05-28T04:17:41.641Z,61.86
2019-05-28T04:20:08.280Z,61.82
2019-05-28T04:22:34.880Z,61.86
2019-05-28T04:25:01.549Z,61.79
2019-05-28T04:27:28.134Z,61.74
2019-05-28T04:29:54.725Z,61.74
2019-05-28T04:32:21.330Z,61.73
2019-05-28T04:34:47.919Z,61.66
2019-05-28T04:37:14.552Z,61.62
2019-05-28T04:39:41.186Z,61.60
2019-05-28T04:42:07.791Z,61.53
2019-05-28T04:44:34.410Z,61.49
2019-05-28T04:47:01.011Z,61.36
2019-05-28T04:49:27.692Z,61.40
2019-05-28T04:51:54.286Z,61.35
2019-05-28T04:54:20.948Z,61.29
2019-05-28T04:56:47.670Z,61.23
2019-05-28T04:59:14.296Z,61.15
2019-05-28T05:01:40.888Z,61.11
2019-05-28T05:04:07.488Z,61.10
2019-05-28T05:06:34.161Z,61.09
2019-05-28T05:09:00.817Z,61.01
2019-05-28T05:11:27.424Z,60.96
2019-05-28T05:13:54.033Z,60.88
2019-05-28T05:16:20.720Z,60.78
2019-05-28T05:18:47.311Z,60.77
2019-05-28T05:21:13.942Z,60.82
2019-05-28T05:23:40.584Z,60.75
2019-05-28T05:26:07.176Z,60.83
2019-05-28T05:28:33.921Z,60.65
2019-05-28T05:31:00.594Z,60.58
2019-05-28T05:33:27.204Z,60.61
2019-05-28T05:35:53.849Z,60.54
2019-05-28T05:38:20.476Z,60.41
2019-05-28T05:40:47.133Z,60.32
2019-05-28T05:43:13.761Z,60.14
2019-05-28T05:45:40.358Z,60.06
2019-05-28T05:48:06.994Z,59.93
2019-05-28T05:50:33.596Z,59.70
2019-05-28T05:53:00.236Z,59.60
2019-05-28T05:55:26.837Z,59.49
2019-05-28T05:57:53.431Z,59.42
2019-05-28T06:00:20.043Z,59.31
2019-05-28T06:02:46.623Z,59.24
2019-05-28T06:05:13.275Z,59.14
2019-05-28T06:07:39.996Z,59.02
2019-05-28T06:10:06.671Z,58.43
2019-05-28T06:12:33.307Z,58.54
2019-05-28T06:14:59.956Z,58.34
2019-05-28T06:17:26.677Z,58.18
2019-05-28T06:19:53.254Z,58.06
2019-05-28T06:22:20.011Z,57.97
2019-05-28T06:24:46.680Z,57.71
2019-05-28T06:27:13.313Z,57.63
2019-05-28T06:29:39.904Z,57.19
2019-05-28T06:32:06.509Z,57.17
2019-05-28T06:34:33.121Z,56.59
2019-05-28T06:36:59.907Z,56.36
2019-05-28T06:39:26.504Z,55.89
2019-05-28T06:41:53.124Z,55.79
2019-05-28T06:44:19.764Z,55.74
2019-05-28T06:46:46.404Z,55.36
2019-05-28T06:49:13.002Z,55.15
2019-05-28T06:51:39.626Z,54.91
2019-05-28T06:54:06.271Z,54.35
2019-05-28T06:56:32.857Z,54.22
2019-05-28T06:58:59.473Z,53.75
2019-05-28T07:01:28.401Z,53.85
2019-05-28T07:03:54.440Z,53.55
2019-05-28T07:06:21.067Z,52.98
2019-05-28T07:08:47.681Z,52.91
2019-05-28T07:11:14.296Z,52.87
2019-05-28T07:13:40.907Z,52.75
2019-05-28T07:16:07.497Z,52.41
2019-05-28T07:18:34.179Z,51.58
2019-05-28T07:21:00.805Z,51.69
2019-05-28T07:23:27.461Z,51.12
2019-05-28T07:25:54.062Z,50.56
2019-05-28T07:28:20.645Z,50.94
2019-05-28T07:30:47.267Z,50.77
2019-05-28T07:33:13.852Z,50.67
2019-05-28T07:35:45.729Z,50.21
2019-05-28T07:38:08.895Z,49.77
2019-05-28T07:40:35.483Z,49.88
2019-05-28T07:43:02.093Z,49.49
2019-05-28T07:45:28.690Z,50.08
2019-05-28T07:47:55.295Z,50.04
2019-05-28T07:50:22.036Z,50.01
2019-05-28T07:52:48.697Z,49.58
2019-05-28T07:55:15.327Z,49.86
2019-05-28T07:57:41.923Z,49.77
2019-05-28T08:00:08.578Z,49.00
2019-05-28T08:02:35.199Z,49.26
2019-05-28T08:05:01.850Z,48.73
2019-05-28T08:07:28.617Z,48.92
2019-05-28T08:09:55.208Z,49.01
2019-05-28T08:12:21.815Z,48.52
2019-05-28T08:14:48.506Z,48.51
2019-05-28T08:17:15.156Z,48.45
2019-05-28T08:19:41.811Z,48.36
2019-05-28T08:22:08.463Z,47.86
2019-05-28T08:24:35.058Z,47.74
2019-05-28T08:27:01.675Z,47.60
2019-05-28T08:29:28.300Z,47.71
2019-05-28T08:31:55.025Z,47.70
2019-05-28T08:34:21.928Z,47.42
2019-05-28T08:37:04.362Z,47.19
2019-05-28T08:39:16.922Z,46.75
2019-05-28T08:41:43.537Z,46.53
2019-05-28T08:44:10.129Z,45.98
2019-05-28T08:46:36.837Z,46.03
2019-05-28T08:49:03.494Z,45.20
2019-05-28T08:51:30.223Z,45.32
2019-05-28T08:53:56.814Z,45.66
2019-05-28T08:56:23.403Z,45.62
2019-05-28T08:58:50.064Z,45.72
2019-05-28T09:01:16.773Z,45.73
2019-05-28T09:03:43.363Z,45.88
2019-05-28T09:06:09.980Z,45.46
2019-05-28T09:08:39.766Z,45.85
2019-05-28T09:11:05.010Z,45.75
2019-05-28T09:13:31.740Z,45.65
2019-05-28T09:15:58.403Z,45.65
2019-05-28T09:18:25.022Z,45.75
2019-05-28T09:20:51.722Z,45.89
2019-05-28T09:23:18.319Z,45.89
2019-05-28T09:25:44.946Z,46.12
2019-05-28T09:28:28.457Z,46.30
2019-05-28T09:30:39.933Z,46.54
2019-05-28T09:33:06.672Z,46.83
2019-05-28T09:35:44.278Z,47.12
2019-05-28T09:38:01.715Z,47.39
2019-05-28T09:40:47.899Z,47.54
2019-05-28T09:42:56.767Z,47.61
2019-05-28T09:45:23.644Z,47.60
2019-05-28T09:47:50.423Z,47.46
2019-05-28T09:50:30.109Z,46.86
2019-05-28T09:52:54.654Z,46.12
2019-05-28T09:55:13.690Z,45.85
2019-05-28T09:57:47.548Z,45.40
2019-05-28T10:00:08.619Z,45.25
2019-05-28T10:02:35.275Z,44.98
2019-05-28T10:05:01.921Z,44.55
2019-05-28T10:07:28.503Z,44.53
2019-05-28T10:09:55.165Z,44.48
2019-05-28T10:12:21.755Z,44.27
2019-05-28T10:14:48.352Z,44.40
2019-05-28T10:17:14.976Z,44.64
2019-05-28T10:19:41.708Z,44.68
2019-05-28T10:22:08.417Z,44.75
2019-05-28T10:24:35.007Z,44.60
2019-05-28T10:27:01.632Z,44.54
2019-05-28T10:29:28.287Z,44.75
2019-05-28T10:31:54.902Z,44.55
2019-05-28T10:34:21.510Z,44.61
2019-05-28T10:36:48.157Z,44.63
2019-05-28T10:39:14.740Z,44.53
2019-05-28T10:41:41.372Z,44.64
2019-05-28T10:44:07.992Z,44.49
2019-05-28T10:46:34.596Z,44.62
2019-05-28T10:49:01.316Z,43.90
2019-05-28T10:51:27.952Z,44.50
2019-05-28T10:53:54.658Z,44.40
2019-05-28T10:56:21.254Z,44.50
2019-05-28T10:58:47.909Z,44.62
2019-05-28T11:01:14.598Z,44.50
2019-05-28T11:03:41.210Z,44.25
2019-05-28T11:06:07.792Z,44.16
2019-05-28T11:08:34.522Z,44.08
2019-05-28T11:11:01.119Z,43.93
2019-05-28T11:13:27.781Z,43.37
2019-05-28T11:15:54.479Z,41.99
2019-05-28T11:18:21.160Z,41.17
2019-05-28T11:20:47.787Z,39.82
2019-05-28T11:23:14.394Z,38.61
2019-05-28T11:25:41.041Z,35.05
2019-05-28T11:28:07.631Z,34.39
2019-05-28T11:30:34.241Z,33.26
2019-05-28T11:33:00.877Z,32.14
2019-05-28T11:35:27.514Z,30.90
2019-05-28T11:37:54.139Z,30.44
2019-05-28T11:40:20.728Z,30.30
2019-05-28T11:42:47.364Z,29.52
2019-05-28T11:45:15.587Z,29.89
2019-05-28T11:47:42.427Z,30.21
2019-05-28T11:50:09.015Z,30.53
2019-05-28T11:52:35.655Z,31.19
2019-05-28T11:55:02.288Z,31.72
2019-05-28T11:57:28.926Z,31.90
2019-05-28T11:59:55.553Z,32.29
2019-05-28T12:02:22.245Z,32.10
2019-05-28T12:04:48.894Z,32.86
2019-05-28T12:07:25.430Z,33.17
2019-05-28T12:09:43.844Z,33.72
2019-05-28T12:12:10.497Z,34.23
2019-05-28T12:14:37.118Z,34.17
2019-05-28T12:17:03.731Z,34.02
2019-05-28T12:19:30.358Z,34.63
2019-05-28T12:21:57.053Z,34.93
2019-05-28T12:24:28.086Z,35.10
2019-05-28T12:26:52.115Z,35.50
2019-05-28T12:29:18.890Z,35.36
2019-05-28T12:31:45.539Z,35.16
2019-05-28T12:34:12.213Z,34.45
2019-05-28T12:36:38.824Z,32.38
2019-05-28T12:39:05.442Z,31.64
2019-05-28T12:41:32.066Z,30.18
2019-05-28T12:43:58.681Z,29.21
2019-05-28T12:46:25.307Z,28.52
2019-05-28T12:48:51.910Z,26.43
2019-05-28T12:51:18.707Z,26.07
2019-05-28T12:53:50.712Z,25.41
2019-05-28T12:56:13.653Z,24.37
2019-05-28T12:58:43.158Z,23.81
2019-05-28T13:01:08.712Z,22.89
2019-05-28T13:03:35.443Z,21.39
2019-05-28T13:06:02.148Z,19.21
2019-05-28T13:08:28.760Z,18.75
2019-05-28T13:10:55.450Z,17.61
2019-05-28T13:13:22.042Z,16.72
2019-05-28T13:15:48.665Z,16.77
2019-05-28T13:18:15.288Z,15.82
2019-05-28T13:20:42.124Z,15.96
2019-05-28T13:23:08.886Z,15.35
2019-05-28T13:25:35.488Z,15.01
2019-05-28T13:28:02.114Z,14.73
2019-05-28T13:30:28.739Z,14.40
2019-05-28T13:32:55.498Z,14.24
2019-05-28T13:35:22.270Z,13.81
2019-05-28T13:37:49.092Z,13.61
2019-05-28T13:40:15.795Z,13.15
2019-05-28T13:42:42.443Z,13.20
2019-05-28T13:45:09.117Z,13.15
2019-05-28T13:47:35.752Z,12.85
2019-05-28T13:50:02.607Z,12.84
2019-05-28T13:52:29.360Z,13.08
2019-05-28T13:54:55.987Z,13.53
2019-05-28T13:57:22.679Z,13.93
2019-05-28T13:59:49.300Z,14.47
2019-05-28T14:02:15.913Z,15.05
2019-05-28T14:04:42.639Z,15.57
2019-05-28T14:07:09.248Z,16.06
2019-05-28T14:09:35.860Z,16.03
2019-05-28T14:12:02.474Z,16.31
2019-05-28T14:14:29.284Z,16.78
2019-05-28T14:16:55.889Z,17.03
2019-05-28T14:19:22.489Z,17.84
2019-05-28T14:21:50.109Z,18.70
2019-05-28T14:24:16.723Z,19.54
2019-05-28T14:26:43.321Z,20.61
2019-05-28T14:29:09.999Z,21.16
2019-05-28T14:31:36.603Z,21.92
2019-05-28T14:34:03.225Z,22.02
2019-05-28T14:36:29.830Z,22.19
2019-05-28T14:39:03.293Z,22.38
2019-05-28T14:41:24.794Z,22.35
2019-05-28T14:43:51.406Z,22.77
2019-05-28T14:46:17.996Z,23.00
2019-05-28T14:48:44.722Z,23.08
2019-05-28T14:51:11.350Z,23.25
2019-05-28T14:53:37.965Z,23.30
2019-05-28T14:56:04.592Z,23.52
2019-05-28T14:58:31.269Z,23.77
2019-05-28T15:00:57.869Z,24.02
2019-05-28T15:03:24.509Z,24.47
2019-05-28T15:05:51.185Z,24.89
2019-05-28T15:08:17.790Z,24.85
2019-05-28T15:10:44.399Z,25.32
2019-05-28T15:13:11.055Z,25.54
2019-05-28T15:15:37.651Z,25.92
2019-05-28T15:18:04.317Z,26.15
2019-05-28T15:20:31.083Z,26.20
2019-05-28T15:22:57.673Z,26.64
2019-05-28T15:25:24.320Z,26.97
2019-05-28T15:27:50.938Z,27.74
2019-05-28T15:30:17.549Z,27.63
2019-05-28T15:32:44.188Z,27.81
2019-05-28T15:35:10.958Z,27.72
2019-05-28T15:37:37.611Z,27.77
2019-05-28T15:40:04.314Z,27.71
2019-05-28T15:42:32.066Z,27.67
2019-05-28T15:44:58.676Z,27.92
2019-05-28T15:47:25.278Z,28.17
2019-05-28T15:49:52.017Z,28.68
2019-05-28T15:52:18.628Z,28.97
2019-05-28T15:54:45.237Z,29.20
2019-05-28T15:57:11.871Z,29.50
2019-05-28T15:59:38.533Z,29.81
2019-05-28T16:02:05.316Z,30.43
2019-05-28T16:04:31.909Z,30.46
2019-05-28T16:06:58.563Z,30.68
2019-05-28T16:09:25.187Z,30.63
2019-05-28T16:11:51.824Z,30.94
2019-05-28T16:14:18.468Z,31.20
2019-05-28T16:16:45.110Z,31.96
2019-05-28T16:19:11.698Z,32.15
2019-05-28T16:21:38.335Z,32.14
2019-05-28T16:24:04.952Z,32.76
2019-05-28T16:26:31.615Z,32.60
2019-05-28T16:28:58.204Z,32.85
2019-05-28T16:31:24.811Z,33.07
2019-05-28T16:33:51.473Z,33.16
2019-05-28T16:36:18.207Z,33.52
2019-05-28T16:38:44.867Z,33.62
2019-05-28T16:41:11.480Z,33.57
2019-05-28T16:43:38.111Z,34.45
2019-05-28T16:46:04.796Z,34.09
2019-05-28T16:48:31.505Z,34.20
2019-05-28T16:50:58.093Z,34.32
2019-05-28T16:53:24.707Z,34.53
2019-05-28T16:55:51.297Z,34.75
2019-05-28T16:58:17.941Z,35.03
2019-05-28T17:00:44.581Z,35.07
2019-05-28T17:03:11.182Z,35.39
2019-05-28T17:05:37.787Z,35.42
2019-05-28T17:08:04.508Z,35.49
2019-05-28T17:10:33.446Z,35.75
2019-05-28T17:12:59.452Z,36.01
2019-05-28T17:15:26.293Z,36.21
2019-05-28T17:17:52.935Z,36.31
2019-05-28T17:20:19.536Z,36.76
2019-05-28T17:22:46.143Z,36.92
2019-05-28T17:25:12.758Z,37.10
2019-05-28T17:27:39.387Z,37.32
2019-05-28T17:30:17.804Z,37.38
2019-05-28T17:32:34.355Z,37.69
2019-05-28T17:35:01.111Z,37.91
2019-05-28T17:37:27.703Z,38.13
2019-05-28T17:39:54.321Z,38.28
2019-05-28T17:42:20.952Z,38.71
2019-05-28T17:44:47.553Z,38.75
2019-05-28T17:47:14.187Z,38.84
2019-05-28T17:49:40.864Z,38.91
2019-05-28T17:52:07.476Z,39.24
2019-05-28T17:54:34.075Z,39.38
2019-05-28T17:57:00.712Z,39.68
2019-05-28T17:59:27.343Z,39.61
2019-05-28T18:01:54.035Z,40.01
2019-05-28T18:04:20.749Z,40.04
2019-05-28T18:06:47.380Z,40.40
2019-05-28T18:09:13.977Z,40.72
2019-05-28T18:11:40.620Z,41.08
2019-05-28T18:14:07.212Z,41.17
2019-05-28T18:16:33.864Z,41.19
2019-05-28T18:19:01.034Z,41.74
2019-05-28T18:21:27.654Z,42.71
2019-05-28T18:23:54.298Z,42.28
2019-05-28T18:26:20.896Z,42.44
2019-05-28T18:28:47.530Z,42.71
2019-05-28T18:31:14.140Z,42.94
2019-05-28T18:33:40.750Z,43.32
2019-05-28T18:36:07.356Z,44.46
2019-05-28T18:38:34.008Z,43.89
2019-05-28T18:41:00.596Z,44.07
2019-05-28T18:43:27.194Z,44.19
2019-05-28T18:45:53.838Z,44.55
2019-05-28T18:48:20.660Z,44.58
2019-05-28T18:50:47.257Z,44.46
2019-05-28T18:53:13.850Z,44.51
2019-05-28T18:55:40.489Z,44.46
2019-05-28T18:58:07.267Z,44.10
2019-05-28T19:00:33.987Z,43.94
2019-05-28T19:03:00.590Z,44.11
2019-05-28T19:05:28.338Z,44.19
2019-05-28T19:07:55.017Z,44.21
2019-05-28T19:10:21.701Z,44.30
2019-05-28T19:12:48.376Z,44.43
2019-05-28T19:15:14.973Z,44.20
2019-05-28T19:17:41.669Z,44.80
2019-05-28T19:20:08.417Z,45.16
2019-05-28T19:22:35.045Z,44.71
2019-05-28T19:25:01.744Z,44.58
2019-05-28T19:27:28.401Z,45.01
2019-05-28T19:29:55.031Z,45.16
2019-05-28T19:32:21.694Z,46.06
2019-05-28T19:34:48.792Z,45.45
2019-05-28T19:37:15.589Z,45.45
2019-05-28T19:39:42.221Z,45.16
2019-05-28T19:42:10.031Z,44.98
2019-05-28T19:44:36.901Z,44.87
2019-05-28T19:47:03.527Z,44.72
2019-05-28T19:49:30.121Z,44.83
2019-05-28T19:51:56.823Z,44.55
2019-05-28T19:54:23.416Z,44.57
2019-05-28T19:56:50.051Z,44.54
2019-05-28T19:59:16.672Z,44.71
2019-05-28T20:01:43.343Z,44.50
2019-05-28T20:04:09.998Z,44.59
2019-05-28T20:06:36.656Z,44.72
2019-05-28T20:09:03.276Z,44.71
2019-05-28T20:11:29.950Z,44.71
2019-05-28T20:13:56.569Z,44.73
2019-05-28T20:16:23.259Z,44.62
2019-05-28T20:18:49.924Z,44.87
2019-05-28T20:21:16.524Z,44.80
2019-05-28T20:23:43.191Z,44.81
2019-05-28T20:26:09.791Z,44.86
2019-05-28T20:28:36.376Z,44.93
2019-05-28T20:31:03.934Z,44.95
2019-05-28T20:33:30.569Z,44.97
2019-05-28T20:35:57.229Z,45.03
2019-05-28T20:38:23.844Z,45.08
2019-05-28T20:40:50.440Z,45.12
2019-05-28T20:43:17.056Z,45.15
2019-05-28T20:45:43.691Z,45.18
2019-05-28T20:48:10.802Z,45.30
2019-05-28T20:50:37.566Z,45.15
2019-05-28T20:53:04.229Z,45.56
2019-05-28T20:55:30.862Z,45.56
2019-05-28T20:57:57.511Z,45.54
2019-05-28T21:00:24.136Z,45.98
2019-05-28T21:02:51.711Z,46.09
2019-05-28T21:05:18.461Z,46.10
2019-05-28T21:07:45.092Z,46.23
2019-05-28T21:10:11.884Z,46.16
2019-05-28T21:12:43.998Z,46.65
2019-05-28T21:15:06.867Z,46.68
2019-05-28T21:17:33.559Z,46.91
2019-05-28T21:20:00.202Z,47.16
2019-05-28T21:22:27.257Z,47.24
2019-05-28T21:24:56.793Z,47.34
2019-05-28T21:27:22.651Z,47.00
2019-05-28T21:29:49.972Z,47.65
2019-05-28T21:32:16.642Z,47.35
2019-05-28T21:34:43.280Z,47.81
2019-05-28T21:37:09.871Z,47.56
2019-05-28T21:39:36.482Z,47.91
2019-05-28T21:42:03.367Z,48.35
2019-05-28T21:44:30.078Z,48.87
2019-05-28T21:46:56.687Z,48.59
2019-05-28T21:49:23.809Z,48.54
2019-05-28T21:51:50.496Z,48.76
2019-05-28T21:54:17.084Z,48.75
2019-05-28T21:56:43.744Z,49.04
2019-05-28T21:59:10.586Z,49.04
2019-05-28T22:01:37.188Z,49.11
2019-05-28T22:04:03.791Z,49.38
2019-05-28T22:06:30.405Z,49.13
2019-05-28T22:08:57.723Z,49.42
2019-05-28T22:11:24.590Z,49.30
2019-05-28T22:13:51.225Z,49.44
2019-05-28T22:16:17.819Z,49.51
2019-05-28T22:18:44.423Z,49.75
2019-05-28T22:21:11.017Z,49.75
2019-05-28T22:23:37.640Z,49.74
2019-05-28T22:26:05.015Z,49.82
2019-05-28T22:28:31.836Z,49.92
2019-05-28T22:30:59.651Z,49.87
2019-05-28T22:33:26.309Z,49.81
2019-05-28T22:35:52.958Z,49.87
2019-05-28T22:38:19.580Z,50.02
2019-05-28T22:40:46.183Z,49.90
2019-05-28T22:43:12.835Z,50.04
2019-05-28T22:45:42.974Z,50.23
2019-05-28T22:48:15.800Z,49.93
2019-05-28T22:50:36.320Z,50.14
2019-05-28T22:53:03.926Z,50.36
2019-05-28T22:55:30.617Z,50.48
2019-05-28T22:57:58.160Z,50.42
2019-05-28T23:00:24.844Z,50.52
2019-05-28T23:02:51.454Z,50.30
2019-05-28T23:05:18.061Z,50.84
2019-05-28T23:07:44.673Z,50.91
2019-05-28T23:10:11.373Z,50.87
2019-05-28T23:12:38.079Z,50.95
2019-05-28T23:15:04.665Z,51.03
2019-05-28T23:17:31.314Z,51.06
2019-05-28T23:19:57.903Z,51.19
2019-05-28T23:22:24.591Z,51.15
2019-05-28T23:24:51.233Z,51.34
2019-05-28T23:27:17.820Z,51.35
2019-05-28T23:29:44.409Z,51.66
2019-05-28T23:32:11.043Z,51.79
2019-05-28T23:34:37.674Z,51.57
2019-05-28T23:37:04.834Z,51.65
2019-05-28T23:39:32.755Z,51.49
2019-05-28T23:41:59.395Z,51.51
2019-05-28T23:44:26.028Z,51.77
2019-05-28T23:46:52.628Z,51.56
2019-05-28T23:49:19.425Z,51.98
2019-05-28T23:51:46.018Z,52.07
2019-05-28T23:54:13.708Z,52.15
2019-05-28T23:56:40.609Z,52.03
2019-05-28T23:59:07.702Z,52.23
